Startpagina
METAR-TAF:

METAR-TAF

Vliegvelden :

Posadas, Argentinië

breedte: 27-22S, lengte: 055-58W, hoogte: 131 m

Actueel weer

Dit bericht is 1 uur en het 3 minuten geleden gemaakt, om 03:00 UTC
Wind 4 kt uit het zuiden
Temperatuur 17°C
Vochtigheid 88%
Druk 1018 hPa
Zicht 10 km of meer
Verspreide wolken op 1000 ft
Gebroken wolken op 2500 ft

METAR: SARP 120300Z 18004KT 9999 SCT010 BKN025 17/15 Q1018

Tijdstip: 01:03 (04:03 UTC)

Verwachting

Dit bericht is 5 uur en het 3 minuten geleden gemaakt, om 23:00 UTC
Verwachting geldig van 12 om 00 UTC tot 12 om 24 UTC
Wind 5 kt uit het zuiden
Zicht 10 km of meer
Verspreide wolken op 1200 ft
Verspreide wolken op 10000 ft
Wijzigt naar
van 12 om 03 UTC tot 12 om 05 UTC
Zicht 10 km of meer
geen wolken onder 1500 m en geen cumulonimbus

TAF: SARP 112300Z 1200/1224 18005KT 9999 SCT012 SCT100 TX22/1218Z TN15/1210Z BECMG 1203/1205 CAVOK

Waarnemingen en weersverwachtingen van meer dan 4000 vliegvelden (METAR en TAF).

De beschikbare stations zijn de gele en rode punten op de kaart.

Ga met uw muis naar het station om de naam te zien.

Klik dan om waarnemingen en weersverwachtingen te zien.

kaart wijzigen: klik op de groene knoppen met een zwart kruis om in te zoomen, op de groene knop met een streepje om uit te zoomen of op de groene pijlen voor aangrenzende kaarten.


METAR-TAF: